createdAt,value
2023-05-21T00:00:22.276Z,101972.66
2023-05-21T00:02:49.296Z,101974.59
2023-05-21T00:05:18.268Z,101967.56
2023-05-21T00:07:45.942Z,101967.69
2023-05-21T00:10:13.060Z,101960.56
2023-05-21T00:12:40.283Z,101962.44
2023-05-21T00:15:08.165Z,101960.09
2023-05-21T00:17:36.905Z,101963.72
2023-05-21T00:20:07.305Z,101963.00
2023-05-21T00:22:33.844Z,101963.13
2023-05-21T00:25:00.563Z,101958.81
2023-05-21T00:27:27.161Z,101959.91
2023-05-21T00:29:53.764Z,101967.19
2023-05-21T00:32:20.393Z,101954.03
2023-05-21T00:34:47.352Z,101958.50
2023-05-21T00:37:15.249Z,101955.03
2023-05-21T00:39:42.158Z,101961.28
2023-05-21T00:42:08.759Z,101954.31
2023-05-21T00:44:35.463Z,101951.84
2023-05-21T00:47:02.426Z,101951.00
2023-05-21T00:49:29.107Z,101961.75
2023-05-21T00:51:55.714Z,101953.16
2023-05-21T00:54:22.735Z,101953.84
2023-05-21T00:56:49.407Z,101952.19
2023-05-21T00:59:16.844Z,101955.03
2023-05-21T01:01:45.498Z,101944.34
2023-05-21T01:04:13.195Z,101946.13
2023-05-21T01:06:39.764Z,101946.25
2023-05-21T01:09:07.355Z,101946.31
2023-05-21T01:11:39.589Z,101946.25
2023-05-21T01:14:09.433Z,101946.38
2023-05-21T01:16:41.039Z,101938.47
2023-05-21T01:19:10.854Z,101942.91
2023-05-21T01:21:41.882Z,101939.44
2023-05-21T01:24:08.457Z,101934.06
2023-05-21T01:26:38.715Z,101934.97
2023-05-21T01:29:06.626Z,101929.59
2023-05-21T01:32:15.199Z,101936.56
2023-05-21T01:34:56.426Z,101938.34
2023-05-21T01:37:25.755Z,101936.66
2023-05-21T01:40:25.521Z,101931.34
2023-05-21T01:42:52.358Z,101941.06
2023-05-21T01:45:20.133Z,101940.88
2023-05-21T01:47:48.326Z,101941.50
2023-05-21T01:50:16.147Z,101941.22
2023-05-21T01:52:53.062Z,101938.59
2023-05-21T01:55:24.813Z,101939.97
2023-05-21T01:57:55.857Z,101935.31
2023-05-21T02:00:24.165Z,101934.19
2023-05-21T02:02:51.687Z,101935.09
2023-05-21T02:05:18.431Z,101936.06
2023-05-21T02:07:46.069Z,101938.53
2023-05-21T02:10:12.922Z,101925.81
2023-05-21T02:12:39.579Z,101925.75
2023-05-21T02:15:06.727Z,101930.06
2023-05-21T02:17:34.256Z,101923.63
2023-05-21T02:20:11.120Z,101932.78
2023-05-21T02:22:39.452Z,101937.16
2023-05-21T02:25:10.156Z,101932.53
2023-05-21T02:27:37.798Z,101934.13
2023-05-21T02:30:09.871Z,101935.03
2023-05-21T02:32:36.656Z,101927.81
2023-05-21T02:35:04.621Z,101928.81
2023-05-21T02:37:34.712Z,101923.56
2023-05-21T02:40:04.247Z,101932.38
2023-05-21T02:42:30.902Z,101926.94
2023-05-21T02:44:57.492Z,101926.28
2023-05-21T02:47:24.207Z,101927.75
2023-05-21T02:49:51.724Z,101928.59
2023-05-21T02:52:19.837Z,101926.09
2023-05-21T02:54:46.761Z,101923.50
2023-05-21T02:57:13.423Z,101927.22
2023-05-21T02:59:40.128Z,101923.44
2023-05-21T03:02:06.981Z,101917.91
2023-05-21T03:04:39.197Z,101920.69
2023-05-21T03:07:06.292Z,101927.88
2023-05-21T03:09:32.879Z,101922.56
2023-05-21T03:11:59.422Z,101918.88
2023-05-21T03:14:26.021Z,101918.78
2023-05-21T03:16:52.944Z,101919.84
2023-05-21T03:19:20.870Z,101915.53
2023-05-21T03:21:49.067Z,101917.25
2023-05-21T03:24:15.733Z,101916.56
2023-05-21T03:26:42.269Z,101918.50
2023-05-21T03:29:08.817Z,101918.44
2023-05-21T03:31:35.434Z,101919.38
2023-05-21T03:34:01.961Z,101917.56
2023-05-21T03:36:28.594Z,101918.38
2023-05-21T03:38:55.146Z,101910.22
2023-05-21T03:41:22.068Z,101911.13
2023-05-21T03:43:48.616Z,101907.56
2023-05-21T03:46:15.303Z,101908.25
2023-05-21T03:48:41.911Z,101920.63
2023-05-21T03:51:09.554Z,101918.88
2023-05-21T03:53:36.857Z,101915.47
2023-05-21T03:56:03.509Z,101918.97
2023-05-21T03:58:30.958Z,101922.44
2023-05-21T04:00:57.648Z,101921.38
2023-05-21T04:03:24.340Z,101909.09
2023-05-21T04:05:51.054Z,101909.56
2023-05-21T04:08:17.652Z,101906.75
2023-05-21T04:10:44.452Z,101911.34
2023-05-21T04:13:11.074Z,101909.69
2023-05-21T04:15:38.904Z,101916.84
2023-05-21T04:18:07.271Z,101909.94
2023-05-21T04:20:34.049Z,101908.16
2023-05-21T04:23:01.196Z,101904.47
2023-05-21T04:25:27.776Z,101912.34
2023-05-21T04:27:54.736Z,101904.56
2023-05-21T04:30:22.033Z,101908.81
2023-05-21T04:32:48.813Z,101913.22
2023-05-21T04:35:15.662Z,101913.00
2023-05-21T04:37:42.179Z,101914.72
2023-05-21T04:40:09.811Z,101905.91
2023-05-21T04:42:36.545Z,101913.94
2023-05-21T04:45:03.411Z,101911.94
2023-05-21T04:47:30.474Z,101910.94
2023-05-21T04:49:57.183Z,101911.72
2023-05-21T04:52:25.072Z,101909.06
2023-05-21T04:54:51.853Z,101913.13
2023-05-21T04:57:18.456Z,101911.38
2023-05-21T04:59:45.031Z,101912.69
2023-05-21T05:02:11.722Z,101917.94
2023-05-21T05:04:38.295Z,101906.38
2023-05-21T05:07:05.039Z,101905.38
2023-05-21T05:09:31.755Z,101911.03
2023-05-21T05:11:58.339Z,101906.41
2023-05-21T05:14:25.142Z,101906.28
2023-05-21T05:16:51.775Z,101904.19
2023-05-21T05:19:18.460Z,101906.53
2023-05-21T05:21:45.017Z,101911.41
2023-05-21T05:24:11.550Z,101901.41
2023-05-21T05:26:38.282Z,101902.34
2023-05-21T05:29:04.852Z,101901.25
2023-05-21T05:31:31.517Z,101897.75
2023-05-21T05:33:58.468Z,101891.72
2023-05-21T05:36:25.165Z,101883.09
2023-05-21T05:38:52.018Z,101879.44
2023-05-21T05:41:18.566Z,101879.09
2023-05-21T05:43:45.108Z,101887.94
2023-05-21T05:46:11.685Z,101879.78
2023-05-21T05:48:38.293Z,101876.19
2023-05-21T05:51:05.279Z,101881.13
2023-05-21T05:53:32.519Z,101871.28
2023-05-21T05:55:59.867Z,101872.28
2023-05-21T05:58:26.420Z,101874.72
2023-05-21T06:00:53.014Z,101872.03
2023-05-21T06:03:20.014Z,101876.66
2023-05-21T06:05:46.806Z,101877.13
2023-05-21T06:08:13.384Z,101885.13
2023-05-21T06:10:39.966Z,101886.69
2023-05-21T06:13:06.535Z,101884.19
2023-05-21T06:15:33.734Z,101883.88
2023-05-21T06:18:00.493Z,101885.97
2023-05-21T06:20:27.691Z,101886.22
2023-05-21T06:22:54.459Z,101887.13
2023-05-21T06:25:21.025Z,101889.00
2023-05-21T06:27:47.588Z,101888.88
2023-05-21T06:30:14.177Z,101887.25
2023-05-21T06:32:40.974Z,101882.13
2023-05-21T06:35:08.060Z,101881.94
2023-05-21T06:37:34.610Z,101883.91
2023-05-21T06:40:01.533Z,101883.44
2023-05-21T06:42:28.110Z,101883.03
2023-05-21T06:44:54.952Z,101883.31
2023-05-21T06:47:21.625Z,101886.56
2023-05-21T06:49:48.226Z,101892.22
2023-05-21T06:52:14.877Z,101896.34
2023-05-21T06:54:42.427Z,101888.88
2023-05-21T06:57:09.040Z,101896.72
2023-05-21T06:59:35.668Z,101899.13
2023-05-21T07:02:04.450Z,101899.47
2023-05-21T07:04:31.608Z,101897.25
2023-05-21T07:06:58.255Z,101908.06
2023-05-21T07:09:24.827Z,101907.97
2023-05-21T07:11:53.026Z,101915.00
2023-05-21T07:14:19.617Z,101911.94
2023-05-21T07:16:46.247Z,101914.78
2023-05-21T07:19:12.917Z,101909.13
2023-05-21T07:21:39.527Z,101912.81
2023-05-21T07:24:06.339Z,101904.81
2023-05-21T07:26:32.955Z,101908.38
2023-05-21T07:28:59.564Z,101896.63
2023-05-21T07:31:26.817Z,101901.03
2023-05-21T07:33:53.460Z,101900.22
2023-05-21T07:36:20.184Z,101903.72
2023-05-21T07:38:46.899Z,101903.63
2023-05-21T07:41:13.450Z,101906.78
2023-05-21T07:43:40.009Z,101904.81
2023-05-21T07:46:06.666Z,101895.28
2023-05-21T07:48:35.452Z,101896.53
2023-05-21T07:51:02.673Z,101888.41
2023-05-21T07:53:32.269Z,101894.94
2023-05-21T07:56:00.168Z,101890.97
2023-05-21T07:58:26.716Z,101880.66
2023-05-21T08:00:53.988Z,101886.03
2023-05-21T08:03:20.736Z,101881.38
2023-05-21T08:05:50.992Z,101879.38
2023-05-21T08:08:20.166Z,101882.84
2023-05-21T08:10:47.825Z,101882.16
2023-05-21T08:13:16.669Z,101895.50
2023-05-21T08:15:43.258Z,101894.22
2023-05-21T08:18:10.155Z,101893.91
2023-05-21T08:20:36.994Z,101884.22
2023-05-21T08:23:04.252Z,101889.31
2023-05-21T08:25:31.040Z,101887.19
2023-05-21T08:27:57.662Z,101887.78
2023-05-21T08:30:24.239Z,101889.16
2023-05-21T08:32:50.826Z,101891.81
2023-05-21T08:35:17.447Z,101885.00
2023-05-21T08:37:44.068Z,101884.38
2023-05-21T08:40:12.593Z,101876.09
2023-05-21T08:42:49.221Z,101883.03
2023-05-21T08:45:20.862Z,101876.53
2023-05-21T08:47:48.184Z,101877.59
2023-05-21T08:50:16.771Z,101885.28
2023-05-21T08:52:44.455Z,101872.09
2023-05-21T08:55:11.083Z,101883.72
2023-05-21T08:57:43.521Z,101878.53
2023-05-21T09:00:11.877Z,101877.25
2023-05-21T09:02:41.078Z,101886.38
2023-05-21T09:05:09.231Z,101872.53
2023-05-21T09:08:05.437Z,101872.94
2023-05-21T09:10:53.330Z,101872.41
2023-05-21T09:13:20.837Z,101855.66
2023-05-21T09:15:48.092Z,101858.38
2023-05-21T09:18:15.067Z,101863.97
2023-05-21T09:20:41.903Z,101846.06
2023-05-21T09:23:16.956Z,101847.72
2023-05-21T09:25:48.495Z,101848.09
2023-05-21T09:28:16.212Z,101848.72
2023-05-21T09:30:46.972Z,101844.53
2023-05-21T09:33:30.122Z,101838.91
2023-05-21T09:35:56.830Z,101845.22
2023-05-21T09:38:24.330Z,101841.28
2023-05-21T09:40:51.023Z,101840.38
2023-05-21T09:43:17.783Z,101836.22
2023-05-21T09:45:55.016Z,101834.16
2023-05-21T09:48:43.068Z,101834.41
2023-05-21T09:51:11.352Z,101828.97
2023-05-21T09:53:54.621Z,101829.56
2023-05-21T09:56:25.944Z,101819.50
2023-05-21T09:58:54.971Z,101826.06
2023-05-21T10:01:22.024Z,101825.97
2023-05-21T10:03:58.504Z,101834.59
2023-05-21T10:06:27.446Z,101833.34
2023-05-21T10:08:56.868Z,101836.22
2023-05-21T10:11:27.108Z,101830.78
2023-05-21T10:14:19.250Z,101822.25
2023-05-21T10:16:47.632Z,101824.28
2023-05-21T10:19:16.111Z,101815.88
2023-05-21T10:21:42.930Z,101805.72
2023-05-21T10:24:10.227Z,101819.13
2023-05-21T10:26:38.396Z,101819.84
2023-05-21T10:29:05.180Z,101815.44
2023-05-21T10:31:33.143Z,101809.59
2023-05-21T10:34:00.668Z,101808.16
2023-05-21T10:36:31.058Z,101805.56
2023-05-21T10:38:58.625Z,101800.00
2023-05-21T10:41:26.184Z,101798.72
2023-05-21T10:44:20.289Z,101794.00
2023-05-21T10:47:09.385Z,101802.03
2023-05-21T10:50:09.328Z,101801.81
2023-05-21T10:52:36.151Z,101808.00
2023-05-21T10:55:02.630Z,101796.00
2023-05-21T10:57:41.482Z,101803.31
2023-05-21T11:00:10.109Z,101794.19
2023-05-21T11:02:37.358Z,101793.22
2023-05-21T11:05:04.629Z,101790.31
2023-05-21T11:08:02.480Z,101789.97
2023-05-21T11:10:39.491Z,101781.72
2023-05-21T11:13:12.786Z,101791.53
2023-05-21T11:15:57.701Z,101781.97
2023-05-21T11:18:36.209Z,101792.00
2023-05-21T11:21:06.454Z,101779.25
2023-05-21T11:23:51.554Z,101775.13
2023-05-21T11:26:26.401Z,101773.53
2023-05-21T11:29:05.060Z,101770.16
2023-05-21T11:31:38.184Z,101759.28
2023-05-21T11:34:11.127Z,101758.88
2023-05-21T11:36:39.078Z,101761.56
2023-05-21T11:39:22.309Z,101758.09
2023-05-21T11:42:04.343Z,101751.25
2023-05-21T11:44:49.169Z,101752.34
2023-05-21T11:47:17.920Z,101744.47
2023-05-21T11:49:45.972Z,101746.16
2023-05-21T11:52:13.793Z,101739.53
2023-05-21T11:54:50.550Z,101738.53
2023-05-21T11:57:19.293Z,101728.28
2023-05-21T11:59:46.685Z,101735.69
2023-05-21T12:02:20.206Z,101736.78
2023-05-21T12:04:48.621Z,101732.72
2023-05-21T12:07:17.328Z,101728.53
2023-05-21T12:09:49.070Z,101728.53
2023-05-21T12:12:21.435Z,101729.63
2023-05-21T12:14:52.673Z,101732.91
2023-05-21T12:17:21.024Z,101725.78
2023-05-21T12:19:48.299Z,101730.28
2023-05-21T12:22:16.574Z,101725.88
2023-05-21T12:24:43.959Z,101723.47
2023-05-21T12:27:12.945Z,101731.16
2023-05-21T12:29:41.762Z,101721.69
2023-05-21T12:32:10.591Z,101709.66
2023-05-21T12:34:42.697Z,101709.88
2023-05-21T12:37:09.347Z,101710.13
2023-05-21T12:39:40.368Z,101709.66
2023-05-21T12:42:07.194Z,101704.78
2023-05-21T12:44:36.635Z,101709.78
2023-05-21T12:47:03.785Z,101710.97
2023-05-21T12:49:35.035Z,101699.22
2023-05-21T12:52:14.264Z,101706.06
2023-05-21T12:54:45.331Z,101707.31
2023-05-21T12:57:17.623Z,101706.22
2023-05-21T12:59:57.973Z,101717.94
2023-05-21T13:02:27.482Z,101711.06
2023-05-21T13:04:56.582Z,101708.25
2023-05-21T13:07:24.421Z,101710.59
2023-05-21T13:09:53.222Z,101708.81
2023-05-21T13:12:22.860Z,101701.56
2023-05-21T13:14:55.012Z,101715.09
2023-05-21T13:17:22.304Z,101708.56
2023-05-21T13:20:08.844Z,101706.22
2023-05-21T13:22:38.965Z,101708.53
2023-05-21T13:25:06.621Z,101703.25
2023-05-21T13:27:33.103Z,101703.44
2023-05-21T13:29:59.654Z,101710.13
2023-05-21T13:32:26.345Z,101722.19
2023-05-21T13:34:52.970Z,101704.06
2023-05-21T13:37:20.574Z,101721.91
2023-05-21T13:39:47.348Z,101707.63
2023-05-21T13:42:14.125Z,101708.41
2023-05-21T13:44:40.773Z,101692.13
2023-05-21T13:47:07.681Z,101695.47
2023-05-21T13:49:34.592Z,101700.47
2023-05-21T13:52:01.199Z,101704.59
2023-05-21T13:54:28.122Z,101700.72
2023-05-21T13:56:54.970Z,101698.31
2023-05-21T13:59:22.085Z,101687.13
2023-05-21T14:01:49.947Z,101696.31
2023-05-21T14:04:17.830Z,101692.63
2023-05-21T14:06:44.907Z,101686.81
2023-05-21T14:09:11.845Z,101681.44
2023-05-21T14:11:38.513Z,101679.00
2023-05-21T14:14:05.668Z,101675.19
2023-05-21T14:16:32.418Z,101676.28
2023-05-21T14:18:59.248Z,101680.88
2023-05-21T14:21:26.119Z,101675.50
2023-05-21T14:23:52.964Z,101685.19
2023-05-21T14:26:19.577Z,101677.66
2023-05-21T14:28:46.336Z,101683.41
2023-05-21T14:31:12.891Z,101683.84
2023-05-21T14:33:39.492Z,101680.91
2023-05-21T14:36:06.167Z,101675.13
2023-05-21T14:38:32.763Z,101681.19
2023-05-21T14:40:59.493Z,101681.47
2023-05-21T14:43:26.049Z,101680.06
2023-05-21T14:45:52.691Z,101672.97
2023-05-21T14:48:22.852Z,101667.84
2023-05-21T14:50:51.090Z,101669.81
2023-05-21T14:53:18.737Z,101658.00
2023-05-21T14:55:45.784Z,101667.75
2023-05-21T14:58:12.378Z,101666.97
2023-05-21T15:00:38.999Z,101660.97
2023-05-21T15:03:06.141Z,101665.84
2023-05-21T15:05:33.835Z,101669.84
2023-05-21T15:08:00.568Z,101667.31
2023-05-21T15:10:28.184Z,101664.03
2023-05-21T15:12:54.620Z,101665.13
2023-05-21T15:15:21.609Z,101656.09
2023-05-21T15:17:48.960Z,101668.22
2023-05-21T15:20:16.135Z,101658.72
2023-05-21T15:22:42.973Z,101662.91
2023-05-21T15:25:10.095Z,101652.56
2023-05-21T15:27:36.697Z,101650.56
2023-05-21T15:30:04.013Z,101653.75
2023-05-21T15:32:31.388Z,101651.59
2023-05-21T15:34:58.169Z,101651.91
2023-05-21T15:37:24.813Z,101656.44
2023-05-21T15:39:51.412Z,101655.06
2023-05-21T15:42:18.037Z,101655.81
2023-05-21T15:44:44.827Z,101647.00
2023-05-21T15:47:11.427Z,101652.34
2023-05-21T15:49:37.980Z,101658.78
2023-05-21T15:52:04.774Z,101655.94
2023-05-21T15:54:31.346Z,101647.78
2023-05-21T15:56:57.933Z,101644.47
2023-05-21T15:59:25.870Z,101646.97
2023-05-21T16:01:52.499Z,101644.44
2023-05-21T16:04:21.710Z,101645.16
2023-05-21T16:06:48.419Z,101658.38
2023-05-21T16:09:15.529Z,101654.19
2023-05-21T16:11:44.686Z,101662.78
2023-05-21T16:14:12.120Z,101659.69
2023-05-21T16:16:38.960Z,101662.19
2023-05-21T16:19:05.821Z,101671.53
2023-05-21T16:21:33.025Z,101668.84
2023-05-21T16:24:00.008Z,101668.66
2023-05-21T16:26:26.574Z,101665.44
2023-05-21T16:28:53.815Z,101677.72
2023-05-21T16:31:20.530Z,101686.19
2023-05-21T16:33:47.160Z,101671.06
2023-05-21T16:36:15.027Z,101676.38
2023-05-21T16:38:44.326Z,101671.53
2023-05-21T16:41:11.164Z,101675.41
2023-05-21T16:43:37.739Z,101676.19
2023-05-21T16:46:04.356Z,101676.59
2023-05-21T16:48:32.259Z,101674.84
2023-05-21T16:50:59.387Z,101677.06
2023-05-21T16:53:26.588Z,101674.13
2023-05-21T16:55:53.173Z,101673.28
2023-05-21T16:58:19.829Z,101675.69
2023-05-21T17:00:46.561Z,101668.56
2023-05-21T17:03:13.308Z,101673.22
2023-05-21T17:05:40.048Z,101670.66
2023-05-21T17:08:07.548Z,101670.25
2023-05-21T17:10:34.277Z,101665.00
2023-05-21T17:13:09.739Z,101667.72
2023-05-21T17:15:44.675Z,101660.56
2023-05-21T17:18:12.146Z,101665.53
2023-05-21T17:20:38.987Z,101651.88
2023-05-21T17:23:05.647Z,101659.16
2023-05-21T17:25:34.298Z,101657.38
2023-05-21T17:28:01.273Z,101667.38
2023-05-21T17:30:27.870Z,101675.69
2023-05-21T17:32:54.660Z,101666.06
2023-05-21T17:35:21.467Z,101667.63
2023-05-21T17:37:48.176Z,101673.09
2023-05-21T17:40:14.845Z,101666.84
2023-05-21T17:42:41.406Z,101673.66
2023-05-21T17:45:08.473Z,101673.31
2023-05-21T17:47:35.221Z,101679.09
2023-05-21T17:50:01.882Z,101670.81
2023-05-21T17:52:28.517Z,101668.41
2023-05-21T17:54:55.129Z,101667.28
2023-05-21T17:57:21.817Z,101674.34
2023-05-21T17:59:48.492Z,101673.44
2023-05-21T18:02:15.069Z,101680.91
2023-05-21T18:04:41.598Z,101676.25
2023-05-21T18:07:08.282Z,101677.09
2023-05-21T18:09:34.883Z,101679.47
2023-05-21T18:12:03.011Z,101686.66
2023-05-21T18:14:30.041Z,101679.09
2023-05-21T18:16:56.673Z,101679.19
2023-05-21T18:19:23.440Z,101682.88
2023-05-21T18:21:50.143Z,101688.38
2023-05-21T18:24:16.694Z,101690.44
2023-05-21T18:26:43.671Z,101687.50
2023-05-21T18:29:11.273Z,101700.47
2023-05-21T18:31:37.980Z,101690.94
2023-05-21T18:34:04.576Z,101701.25
2023-05-21T18:36:38.873Z,101696.47
2023-05-21T18:39:06.872Z,101705.69
2023-05-21T18:41:33.598Z,101710.56
2023-05-21T18:44:01.975Z,101710.13
2023-05-21T18:46:29.081Z,101709.16
2023-05-21T18:48:56.417Z,101712.47
2023-05-21T18:51:23.016Z,101714.94
2023-05-21T18:53:49.586Z,101712.03
2023-05-21T18:56:16.542Z,101715.50
2023-05-21T18:58:43.107Z,101703.22
2023-05-21T19:01:10.060Z,101711.41
2023-05-21T19:03:36.803Z,101709.44
2023-05-21T19:06:03.656Z,101709.72
2023-05-21T19:08:30.251Z,101709.06
2023-05-21T19:10:56.820Z,101709.75
2023-05-21T19:13:23.716Z,101712.25
2023-05-21T19:15:50.458Z,101709.47
2023-05-21T19:18:17.326Z,101713.78
2023-05-21T19:20:44.009Z,101708.72
2023-05-21T19:23:10.823Z,101710.06
2023-05-21T19:25:37.598Z,101718.63
2023-05-21T19:28:04.295Z,101708.97
2023-05-21T19:30:30.981Z,101711.69
2023-05-21T19:32:57.857Z,101706.44
2023-05-21T19:35:24.440Z,101707.72
2023-05-21T19:37:51.160Z,101710.00
2023-05-21T19:40:17.920Z,101708.97
2023-05-21T19:42:44.771Z,101707.41
2023-05-21T19:45:11.831Z,101706.44
2023-05-21T19:47:41.043Z,101701.53
2023-05-21T19:50:08.289Z,101704.66
2023-05-21T19:52:34.868Z,101714.56
2023-05-21T19:55:04.841Z,101714.88
2023-05-21T19:57:32.795Z,101713.94
2023-05-21T19:59:59.509Z,101713.47
2023-05-21T20:02:28.791Z,101710.63
2023-05-21T20:04:57.627Z,101714.81
2023-05-21T20:07:24.409Z,101720.38
2023-05-21T20:09:51.149Z,101715.34
2023-05-21T20:12:17.824Z,101713.56
2023-05-21T20:14:46.733Z,101709.50
2023-05-21T20:17:14.638Z,101709.78
2023-05-21T20:19:41.390Z,101708.44
2023-05-21T20:22:08.062Z,101712.75
2023-05-21T20:24:34.681Z,101711.88
2023-05-21T20:27:01.699Z,101715.75
2023-05-21T20:29:28.873Z,101716.03
2023-05-21T20:31:55.495Z,101711.63
2023-05-21T20:34:22.253Z,101715.84
2023-05-21T20:36:48.866Z,101709.75
2023-05-21T20:39:15.839Z,101717.00
2023-05-21T20:41:44.852Z,101704.63
2023-05-21T20:44:12.021Z,101704.28
2023-05-21T20:46:39.010Z,101709.28
2023-05-21T20:49:05.943Z,101707.84
2023-05-21T20:51:32.660Z,101715.13
2023-05-21T20:53:59.315Z,101717.97
2023-05-21T20:56:40.815Z,101715.56
2023-05-21T20:59:10.477Z,101716.47
2023-05-21T21:01:38.167Z,101715.38
2023-05-21T21:04:05.155Z,101711.47
2023-05-21T21:06:32.017Z,101714.94
2023-05-21T21:08:58.767Z,101713.44
2023-05-21T21:11:26.652Z,101705.31
2023-05-21T21:13:53.345Z,101717.66
2023-05-21T21:16:19.989Z,101718.94
2023-05-21T21:18:47.153Z,101730.94
2023-05-21T21:21:13.872Z,101715.44
2023-05-21T21:23:40.696Z,101716.44
2023-05-21T21:26:07.369Z,101711.97
2023-05-21T21:28:34.331Z,101714.63
2023-05-21T21:31:00.991Z,101716.44
2023-05-21T21:33:28.448Z,101706.88
2023-05-21T21:35:55.326Z,101709.28
2023-05-21T21:38:22.024Z,101696.69
2023-05-21T21:40:48.956Z,101697.53
2023-05-21T21:43:15.546Z,101707.75
2023-05-21T21:45:42.210Z,101700.19
2023-05-21T21:48:08.811Z,101706.28
2023-05-21T21:50:35.511Z,101702.78
2023-05-21T21:53:03.545Z,101708.44
2023-05-21T21:55:30.350Z,101707.50
2023-05-21T21:57:56.973Z,101694.94
2023-05-21T22:00:26.725Z,101698.44
2023-05-21T22:02:53.980Z,101694.94
2023-05-21T22:05:21.000Z,101702.06
2023-05-21T22:07:47.907Z,101700.34
2023-05-21T22:10:16.149Z,101702.13
2023-05-21T22:12:43.979Z,101690.69
2023-05-21T22:15:25.190Z,101703.06
2023-05-21T22:17:52.112Z,101699.75
2023-05-21T22:20:19.387Z,101697.38
2023-05-21T22:22:46.239Z,101707.00
2023-05-21T22:25:12.893Z,101701.88
2023-05-21T22:27:40.301Z,101705.28
2023-05-21T22:30:07.482Z,101694.34
2023-05-21T22:32:34.119Z,101688.13
2023-05-21T22:35:02.354Z,101691.91
2023-05-21T22:37:28.957Z,101689.34
2023-05-21T22:39:56.843Z,101690.75
2023-05-21T22:42:23.752Z,101695.41
2023-05-21T22:44:50.668Z,101692.06
2023-05-21T22:47:17.583Z,101694.81
2023-05-21T22:49:45.519Z,101688.84
2023-05-21T22:52:12.080Z,101687.78
2023-05-21T22:54:38.634Z,101687.91
2023-05-21T22:57:05.697Z,101691.75
2023-05-21T22:59:32.518Z,101688.09
2023-05-21T23:01:59.283Z,101695.84
2023-05-21T23:04:42.657Z,101694.22
2023-05-21T23:07:10.296Z,101694.16
2023-05-21T23:09:37.059Z,101690.81
2023-05-21T23:12:04.030Z,101684.53
2023-05-21T23:14:30.820Z,101683.06
2023-05-21T23:17:01.937Z,101681.34
2023-05-21T23:19:29.777Z,101683.06
2023-05-21T23:21:56.590Z,101680.72
2023-05-21T23:28:25.851Z,101672.97
2023-05-21T23:30:52.846Z,101680.16
2023-05-21T23:33:19.536Z,101682.00
2023-05-21T23:35:46.116Z,101677.75
2023-05-21T23:38:12.822Z,101673.31
2023-05-21T23:40:39.594Z,101671.53
2023-05-21T23:43:06.444Z,101662.72
2023-05-21T23:45:33.149Z,101674.97
2023-05-21T23:47:59.818Z,101662.03
2023-05-21T23:50:26.427Z,101664.75
2023-05-21T23:52:52.993Z,101661.28
2023-05-21T23:55:19.642Z,101657.72
2023-05-21T23:57:46.211Z,101658.47
